createdAt,value
2022-07-31T00:00:16.758Z,94.6
2022-07-31T00:01:17.175Z,94.6
2022-07-31T00:02:16.993Z,94.7
2022-07-31T00:03:16.596Z,94.7
2022-07-31T00:04:17.036Z,94.9
2022-07-31T00:05:16.485Z,95.0
2022-07-31T00:06:16.938Z,95.3
2022-07-31T00:07:17.426Z,95.2
2022-07-31T00:08:16.916Z,95.1
2022-07-31T00:09:49.343Z,95.1
2022-07-31T00:10:16.786Z,95.1
2022-07-31T00:11:17.228Z,95.3
2022-07-31T00:12:17.055Z,95.2
2022-07-31T00:13:16.476Z,95.1
2022-07-31T00:14:16.888Z,95.1
2022-07-31T00:15:17.384Z,95.1
2022-07-31T00:16:17.426Z,95.0
2022-07-31T00:17:16.879Z,94.9
2022-07-31T00:18:17.309Z,95.1
2022-07-31T00:19:16.737Z,95.1
2022-07-31T00:20:17.187Z,95.0
2022-07-31T00:21:16.636Z,95.0
2022-07-31T00:22:17.306Z,95.2
2022-07-31T00:23:19.226Z,95.3
2022-07-31T00:24:16.676Z,95.2
2022-07-31T00:25:17.126Z,95.2
2022-07-31T00:26:16.593Z,95.3
2022-07-31T00:27:17.057Z,95.3
2022-07-31T00:28:16.470Z,95.2
2022-07-31T00:29:16.936Z,94.8
2022-07-31T00:30:17.415Z,94.6
2022-07-31T00:31:16.828Z,94.5
2022-07-31T00:32:17.402Z,94.5
2022-07-31T00:33:16.834Z,94.5
2022-07-31T00:34:17.259Z,94.5
2022-07-31T00:35:16.704Z,94.5
2022-07-31T00:36:17.188Z,94.6
2022-07-31T00:37:16.675Z,94.9
2022-07-31T00:38:27.939Z,94.7
2022-07-31T00:39:16.540Z,94.8
2022-07-31T00:40:16.977Z,95.3
2022-07-31T00:41:16.478Z,95.5
2022-07-31T00:42:16.926Z,95.5
2022-07-31T00:43:17.346Z,95.7
2022-07-31T00:44:18.610Z,95.7
2022-07-31T00:45:24.204Z,95.7
2022-07-31T00:46:17.874Z,95.8
2022-07-31T00:47:17.358Z,95.9
2022-07-31T00:48:16.494Z,95.8
2022-07-31T00:49:16.662Z,95.7
2022-07-31T00:50:17.157Z,95.7
2022-07-31T00:51:16.633Z,95.8
2022-07-31T00:52:16.920Z,95.8
2022-07-31T00:53:17.383Z,95.8
2022-07-31T00:54:23.222Z,95.8
2022-07-31T00:55:16.740Z,95.8
2022-07-31T00:56:17.218Z,95.9
2022-07-31T00:57:16.648Z,96.0
2022-07-31T00:58:17.059Z,96.0
2022-07-31T00:59:24.669Z,96.0
2022-07-31T01:00:17.401Z,96.1
2022-07-31T01:01:16.946Z,96.3
2022-07-31T01:02:16.644Z,96.2
2022-07-31T01:03:17.063Z,96.4
2022-07-31T01:04:16.535Z,96.5
2022-07-31T01:05:17.343Z,96.4
2022-07-31T01:06:16.803Z,96.6
2022-07-31T01:07:17.249Z,96.6
2022-07-31T01:08:16.720Z,96.3
2022-07-31T01:09:17.173Z,96.0
2022-07-31T01:10:16.643Z,95.7
2022-07-31T01:11:17.121Z,95.6
2022-07-31T01:12:16.500Z,95.7
2022-07-31T01:13:16.921Z,95.9
2022-07-31T01:14:17.338Z,96.0
2022-07-31T01:15:16.753Z,96.0
2022-07-31T01:16:17.184Z,96.2
2022-07-31T01:17:16.620Z,96.1
2022-07-31T01:18:17.045Z,96.1
2022-07-31T01:19:16.485Z,96.1
2022-07-31T01:20:16.952Z,96.1
2022-07-31T01:21:17.413Z,96.1
2022-07-31T01:22:32.712Z,96.0
2022-07-31T01:23:17.086Z,96.0
2022-07-31T01:24:16.587Z,96.1
2022-07-31T01:25:17.050Z,96.2
2022-07-31T01:26:19.669Z,96.3
2022-07-31T01:27:16.534Z,96.4
2022-07-31T01:28:16.965Z,96.4
2022-07-31T01:29:17.401Z,96.3
2022-07-31T01:30:16.835Z,96.3
2022-07-31T01:31:27.703Z,96.3
2022-07-31T01:32:16.713Z,96.3
2022-07-31T01:33:17.136Z,96.3
2022-07-31T01:34:16.571Z,96.3
2022-07-31T01:35:17.023Z,95.9
2022-07-31T01:36:16.496Z,95.6
2022-07-31T01:37:16.957Z,95.4
2022-07-31T01:38:17.428Z,95.2
2022-07-31T01:39:16.909Z,95.0
2022-07-31T01:40:17.423Z,94.9
2022-07-31T01:41:16.866Z,94.8
2022-07-31T01:42:16.694Z,94.8
2022-07-31T01:43:17.111Z,94.7
2022-07-31T01:44:16.564Z,94.7
2022-07-31T01:45:16.987Z,94.9
2022-07-31T01:46:16.420Z,94.9
2022-07-31T01:47:16.850Z,94.9
2022-07-31T01:48:17.306Z,95.0
2022-07-31T01:49:16.966Z,95.1
2022-07-31T01:50:43.417Z,95.1
2022-07-31T01:51:16.964Z,94.9
2022-07-31T01:52:16.535Z,94.9
2022-07-31T01:53:17.016Z,94.9
2022-07-31T01:54:16.474Z,94.9
2022-07-31T01:55:16.932Z,94.9
2022-07-31T01:56:17.380Z,95.0
2022-07-31T01:57:19.009Z,94.9
2022-07-31T01:58:16.428Z,94.9
2022-07-31T01:59:23.653Z,95.0
2022-07-31T02:00:34.072Z,95.1
2022-07-31T02:01:17.589Z,95.1
2022-07-31T02:02:17.086Z,95.0
2022-07-31T02:03:17.337Z,94.9
2022-07-31T02:04:16.795Z,94.8
2022-07-31T02:05:17.305Z,94.7
2022-07-31T02:06:16.784Z,94.6
2022-07-31T02:07:17.237Z,94.7
2022-07-31T02:08:16.699Z,94.8
2022-07-31T02:09:17.205Z,94.9
2022-07-31T02:10:16.703Z,94.9
2022-07-31T02:11:17.170Z,95.0
2022-07-31T02:12:31.829Z,95.0
2022-07-31T02:13:17.194Z,95.0
2022-07-31T02:14:16.636Z,94.9
2022-07-31T02:15:17.061Z,94.9
2022-07-31T02:16:16.485Z,94.9
2022-07-31T02:17:22.926Z,94.8
2022-07-31T02:18:17.380Z,94.8
2022-07-31T02:19:16.839Z,94.8
2022-07-31T02:20:17.363Z,94.9
2022-07-31T02:21:16.813Z,94.9
2022-07-31T02:22:16.687Z,94.9
2022-07-31T02:23:17.149Z,94.9
2022-07-31T02:24:16.639Z,94.7
2022-07-31T02:25:17.079Z,94.3
2022-07-31T02:26:16.508Z,94.2
2022-07-31T02:27:53.290Z,94.1
2022-07-31T02:28:16.399Z,94.1
2022-07-31T02:29:20.294Z,94.0
2022-07-31T02:30:16.794Z,94.0
2022-07-31T02:31:17.260Z,94.1
2022-07-31T02:32:17.200Z,94.2
2022-07-31T02:33:16.660Z,94.3
2022-07-31T02:34:17.121Z,94.2
2022-07-31T02:35:16.567Z,94.0
2022-07-31T02:36:17.044Z,94.1
2022-07-31T02:37:16.504Z,94.0
2022-07-31T02:38:23.734Z,94.1
2022-07-31T02:39:17.303Z,94.3
2022-07-31T02:40:16.721Z,94.6
2022-07-31T02:41:17.150Z,94.8
2022-07-31T02:42:16.854Z,94.6
2022-07-31T02:43:17.287Z,94.7
2022-07-31T02:44:27.387Z,94.8
2022-07-31T02:45:16.835Z,95.1
2022-07-31T02:46:17.251Z,95.1
2022-07-31T02:47:16.742Z,95.1
2022-07-31T02:48:17.218Z,95.2
2022-07-31T02:49:16.774Z,95.2
2022-07-31T02:50:20.623Z,95.2
2022-07-31T02:51:17.089Z,95.0
2022-07-31T02:52:17.292Z,94.9
2022-07-31T02:53:16.766Z,95.0
2022-07-31T02:54:17.189Z,95.0
2022-07-31T02:55:16.639Z,95.0
2022-07-31T02:56:17.049Z,94.9
2022-07-31T02:57:16.477Z,94.9
2022-07-31T02:58:16.908Z,95.0
2022-07-31T02:59:17.314Z,95.2
2022-07-31T03:00:16.757Z,95.3
2022-07-31T03:01:17.386Z,95.5
2022-07-31T03:02:16.846Z,95.6
2022-07-31T03:03:17.286Z,95.8
2022-07-31T03:04:16.732Z,95.9
2022-07-31T03:05:17.196Z,95.7
2022-07-31T03:06:16.685Z,95.5
2022-07-31T03:07:17.155Z,95.4
2022-07-31T03:08:16.598Z,95.4
2022-07-31T03:09:17.021Z,95.4
2022-07-31T03:10:16.469Z,95.7
2022-07-31T03:11:16.877Z,96.0
2022-07-31T03:12:16.475Z,96.0
2022-07-31T03:13:16.890Z,96.1
2022-07-31T03:14:17.325Z,96.3
2022-07-31T03:15:16.756Z,96.3
2022-07-31T03:16:17.197Z,96.5
2022-07-31T03:17:16.652Z,96.5
2022-07-31T03:18:17.144Z,96.6
2022-07-31T03:19:16.615Z,96.5
2022-07-31T03:20:17.049Z,96.3
2022-07-31T03:21:16.496Z,96.1
2022-07-31T03:22:17.247Z,96.0
2022-07-31T03:23:16.714Z,96.0
2022-07-31T03:24:17.158Z,96.0
2022-07-31T03:25:22.409Z,96.0
2022-07-31T03:26:16.851Z,96.3
2022-07-31T03:27:17.311Z,96.2
2022-07-31T03:28:16.716Z,96.2
2022-07-31T03:29:38.964Z,96.2
2022-07-31T03:30:16.680Z,96.2
2022-07-31T03:31:17.125Z,96.3
2022-07-31T03:32:17.154Z,96.4
2022-07-31T03:33:16.632Z,96.4
2022-07-31T03:34:17.083Z,96.4
2022-07-31T03:35:16.547Z,96.4
2022-07-31T03:36:17.040Z,96.4
2022-07-31T03:37:16.516Z,96.3
2022-07-31T03:38:38.397Z,96.4
2022-07-31T03:39:17.365Z,96.3
2022-07-31T03:40:16.803Z,96.3
2022-07-31T03:41:17.244Z,96.2
2022-07-31T03:42:19.498Z,96.2
2022-07-31T03:43:16.912Z,96.2
2022-07-31T03:44:17.364Z,96.2
2022-07-31T03:45:16.816Z,96.3
2022-07-31T03:46:17.349Z,96.3
2022-07-31T03:47:17.210Z,96.5
2022-07-31T03:48:16.658Z,96.4
2022-07-31T03:49:17.298Z,96.4
2022-07-31T03:50:16.784Z,96.5
2022-07-31T03:51:17.274Z,96.6
2022-07-31T03:52:16.944Z,96.9
2022-07-31T03:53:17.392Z,97.3
2022-07-31T03:54:16.816Z,97.4
2022-07-31T03:55:17.674Z,97.2
2022-07-31T03:56:17.100Z,97.1
2022-07-31T03:57:18.030Z,97.0
2022-07-31T03:58:17.000Z,96.9
2022-07-31T03:59:17.195Z,96.9
2022-07-31T04:00:18.045Z,96.9
2022-07-31T04:01:21.018Z,96.9
2022-07-31T04:02:19.216Z,96.7
2022-07-31T04:03:16.708Z,96.7
2022-07-31T04:04:18.463Z,96.7
2022-07-31T04:05:17.010Z,96.6
2022-07-31T04:06:16.491Z,96.7
2022-07-31T04:07:16.947Z,96.7
2022-07-31T04:08:17.396Z,96.7
2022-07-31T04:09:19.210Z,96.7
2022-07-31T04:10:16.726Z,96.7
2022-07-31T04:11:17.147Z,96.7
2022-07-31T04:12:17.320Z,96.7
2022-07-31T04:13:16.764Z,96.7
2022-07-31T04:14:17.197Z,96.7
2022-07-31T04:15:16.668Z,96.8
2022-07-31T04:16:17.116Z,96.6
2022-07-31T04:17:16.559Z,96.5
2022-07-31T04:18:17.025Z,96.4
2022-07-31T04:19:16.510Z,96.3
2022-07-31T04:20:16.985Z,96.2
2022-07-31T04:21:16.448Z,96.2
2022-07-31T04:22:17.017Z,96.1
2022-07-31T04:23:16.815Z,96.1
2022-07-31T04:24:17.245Z,96.0
2022-07-31T04:25:16.662Z,96.0
2022-07-31T04:26:26.049Z,95.7
2022-07-31T04:27:16.694Z,95.7
2022-07-31T04:28:17.114Z,95.6
2022-07-31T04:29:16.578Z,95.5
2022-07-31T04:30:17.028Z,95.6
2022-07-31T04:31:16.486Z,95.5
2022-07-31T04:32:16.974Z,95.5
2022-07-31T04:33:16.446Z,95.4
2022-07-31T04:34:16.896Z,95.3
2022-07-31T04:35:17.363Z,95.1
2022-07-31T04:36:29.145Z,95.0
2022-07-31T04:37:17.242Z,94.6
2022-07-31T04:38:16.693Z,94.1
2022-07-31T04:39:17.107Z,93.7
2022-07-31T04:40:16.542Z,93.7
2022-07-31T04:41:18.824Z,93.4
2022-07-31T04:42:16.788Z,93.2
2022-07-31T04:43:17.211Z,93.1
2022-07-31T04:44:16.657Z,93.0
2022-07-31T04:45:17.122Z,92.7
2022-07-31T04:46:18.021Z,92.6
2022-07-31T04:47:16.565Z,92.4
2022-07-31T04:48:17.014Z,92.2
2022-07-31T04:49:16.671Z,92.0
2022-07-31T04:50:17.178Z,91.8
2022-07-31T04:51:16.636Z,91.8
2022-07-31T04:52:17.372Z,91.7
2022-07-31T04:53:16.807Z,91.7
2022-07-31T04:54:17.236Z,91.8
2022-07-31T04:55:16.671Z,91.7
2022-07-31T04:56:17.085Z,91.5
2022-07-31T04:57:22.205Z,91.4
2022-07-31T04:58:16.707Z,91.2
2022-07-31T04:59:17.157Z,91.0
2022-07-31T05:00:16.618Z,91.0
2022-07-31T05:01:17.180Z,91.0
2022-07-31T05:02:16.774Z,91.0
2022-07-31T05:03:17.240Z,90.9
2022-07-31T05:04:16.710Z,90.7
2022-07-31T05:05:17.197Z,90.7
2022-07-31T05:06:16.677Z,90.6
2022-07-31T05:07:17.091Z,90.3
2022-07-31T05:08:16.513Z,90.1
2022-07-31T05:09:19.638Z,90.2
2022-07-31T05:10:17.036Z,89.9
2022-07-31T05:11:16.456Z,90.0
2022-07-31T05:12:17.122Z,90.0
2022-07-31T05:13:16.845Z,90.0
2022-07-31T05:14:17.325Z,89.9
2022-07-31T05:15:16.787Z,89.9
2022-07-31T05:16:17.239Z,90.1
2022-07-31T05:17:16.692Z,90.1
2022-07-31T05:18:17.144Z,90.2
2022-07-31T05:19:16.604Z,90.1
2022-07-31T05:20:17.054Z,89.9
2022-07-31T05:21:16.475Z,89.7
2022-07-31T05:22:19.043Z,89.7
2022-07-31T05:23:16.469Z,89.5
2022-07-31T05:24:32.856Z,89.5
2022-07-31T05:25:17.322Z,89.6
2022-07-31T05:26:16.730Z,89.5
2022-07-31T05:27:17.170Z,89.7
2022-07-31T05:28:16.967Z,89.6
2022-07-31T05:29:16.516Z,89.9
2022-07-31T05:30:30.323Z,89.3
2022-07-31T05:31:17.160Z,89.7
2022-07-31T05:32:17.915Z,89.6
2022-07-31T05:33:16.573Z,89.6
2022-07-31T05:34:17.029Z,89.4
2022-07-31T05:35:16.488Z,89.4
2022-07-31T05:36:16.951Z,89.5
2022-07-31T05:37:17.362Z,89.4
2022-07-31T05:38:16.802Z,89.5
2022-07-31T05:39:17.240Z,89.7
2022-07-31T05:40:16.692Z,90.0
2022-07-31T05:41:17.150Z,89.9
2022-07-31T05:42:16.505Z,90.0
2022-07-31T05:43:16.951Z,90.3
2022-07-31T05:44:17.405Z,90.3
2022-07-31T05:45:16.869Z,89.5
2022-07-31T05:46:17.355Z,89.3
2022-07-31T05:47:16.824Z,89.1
2022-07-31T05:48:17.270Z,89.1
2022-07-31T05:49:16.929Z,89.2
2022-07-31T05:50:16.412Z,88.6
2022-07-31T05:51:20.198Z,88.4
2022-07-31T05:52:16.552Z,88.4
2022-07-31T05:53:16.981Z,88.3
2022-07-31T05:54:16.403Z,88.2
2022-07-31T05:55:16.815Z,89.1
2022-07-31T05:56:17.260Z,89.3
2022-07-31T05:57:33.891Z,90.0
2022-07-31T05:58:17.276Z,90.3
2022-07-31T05:59:16.725Z,90.5
2022-07-31T06:00:17.766Z,90.0
2022-07-31T06:01:17.453Z,89.3
2022-07-31T06:02:17.298Z,88.6
2022-07-31T06:03:16.713Z,88.4
2022-07-31T06:04:17.177Z,88.9
2022-07-31T06:05:16.592Z,89.4
2022-07-31T06:06:17.253Z,89.6
2022-07-31T06:07:16.672Z,89.7
2022-07-31T06:08:17.092Z,90.5
2022-07-31T06:09:16.546Z,89.6
2022-07-31T06:10:17.003Z,89.1
2022-07-31T06:11:16.462Z,88.2
2022-07-31T06:12:16.471Z,87.9
2022-07-31T06:13:16.974Z,87.6
2022-07-31T06:14:16.432Z,87.9
2022-07-31T06:15:16.896Z,89.0
2022-07-31T06:16:17.350Z,89.3
2022-07-31T06:17:16.809Z,89.2
2022-07-31T06:18:17.226Z,89.4
2022-07-31T06:19:16.674Z,90.0
2022-07-31T06:20:17.101Z,90.1
2022-07-31T06:22:17.042Z,89.4
2022-07-31T06:23:29.854Z,89.0
2022-07-31T06:24:18.076Z,87.7
2022-07-31T06:25:16.537Z,87.4
2022-07-31T06:26:18.571Z,86.9
2022-07-31T06:27:33.692Z,86.5
2022-07-31T06:28:17.598Z,86.2
2022-07-31T06:29:17.053Z,85.7
2022-07-31T06:30:16.518Z,85.5
2022-07-31T06:31:16.999Z,85.7
2022-07-31T06:32:17.289Z,85.3
2022-07-31T06:33:36.887Z,84.8
2022-07-31T06:34:20.166Z,85.6
2022-07-31T06:35:16.589Z,85.9
2022-07-31T06:36:17.014Z,85.3
2022-07-31T06:37:16.437Z,85.0
2022-07-31T06:38:16.883Z,85.2
2022-07-31T06:39:17.306Z,85.0
2022-07-31T06:40:17.291Z,84.2
2022-07-31T06:41:16.740Z,83.4
2022-07-31T06:42:17.807Z,83.2
2022-07-31T06:43:17.296Z,83.3
2022-07-31T06:44:16.758Z,82.9
2022-07-31T06:45:48.807Z,83.1
2022-07-31T06:46:16.765Z,83.0
2022-07-31T06:47:17.256Z,82.7
2022-07-31T06:48:16.705Z,82.7
2022-07-31T06:49:17.240Z,82.7
2022-07-31T06:50:16.706Z,82.2
2022-07-31T06:51:31.085Z,81.4
2022-07-31T06:52:17.033Z,81.7
2022-07-31T06:53:16.448Z,81.3
2022-07-31T06:54:16.913Z,81.3
2022-07-31T06:55:17.362Z,81.3
2022-07-31T06:56:16.826Z,81.1
2022-07-31T06:57:17.329Z,81.3
2022-07-31T06:58:16.825Z,81.8
2022-07-31T06:59:39.469Z,81.6
2022-07-31T07:00:21.010Z,80.8
2022-07-31T07:01:16.731Z,80.8
2022-07-31T07:02:16.917Z,80.7
2022-07-31T07:03:17.332Z,80.6
2022-07-31T07:04:16.762Z,80.8
2022-07-31T07:05:17.216Z,80.4
2022-07-31T07:06:16.671Z,80.3
2022-07-31T07:07:17.091Z,81.1
2022-07-31T07:08:16.546Z,81.9
2022-07-31T07:09:16.966Z,82.8
2022-07-31T07:10:17.448Z,82.0
2022-07-31T07:11:16.917Z,81.6
2022-07-31T07:12:17.197Z,78.4
2022-07-31T07:13:16.665Z,77.3
2022-07-31T07:14:17.158Z,76.9
2022-07-31T07:15:16.646Z,76.0
2022-07-31T07:16:17.119Z,75.5
2022-07-31T07:17:16.842Z,75.7
2022-07-31T07:18:17.266Z,77.9
2022-07-31T07:19:16.691Z,78.1
2022-07-31T07:20:17.119Z,76.7
2022-07-31T07:21:16.537Z,75.6
2022-07-31T07:22:29.509Z,74.4
2022-07-31T07:23:17.319Z,74.1
2022-07-31T07:24:16.755Z,73.9
2022-07-31T07:25:17.207Z,73.8
2022-07-31T07:26:16.684Z,72.9
2022-07-31T07:27:17.131Z,72.7
2022-07-31T07:28:29.471Z,72.6
2022-07-31T07:29:16.645Z,71.1
2022-07-31T07:30:17.126Z,70.9
2022-07-31T07:31:16.579Z,71.0
2022-07-31T07:32:16.490Z,71.3
2022-07-31T07:33:40.296Z,71.6
2022-07-31T07:34:17.378Z,70.3
2022-07-31T07:35:16.791Z,70.3
2022-07-31T07:36:24.517Z,70.2
2022-07-31T07:37:17.115Z,70.5
2022-07-31T07:38:16.544Z,70.7
2022-07-31T07:39:17.011Z,71.0
2022-07-31T07:40:16.495Z,70.6
2022-07-31T07:41:18.875Z,70.3
2022-07-31T07:42:16.528Z,70.1
2022-07-31T07:43:16.991Z,69.9
2022-07-31T07:44:16.456Z,69.7
2022-07-31T07:45:16.905Z,69.1
2022-07-31T07:46:17.461Z,69.1
2022-07-31T07:47:16.872Z,70.7
2022-07-31T07:48:17.318Z,71.5
2022-07-31T07:49:16.855Z,70.7
2022-07-31T07:50:17.357Z,68.2
2022-07-31T07:51:16.773Z,66.1
2022-07-31T07:52:16.979Z,64.7
2022-07-31T07:53:17.394Z,63.2
2022-07-31T07:54:16.870Z,62.4
2022-07-31T07:55:17.323Z,62.5
2022-07-31T07:56:16.793Z,62.4
2022-07-31T07:57:17.303Z,60.4
2022-07-31T07:58:16.743Z,60.5
2022-07-31T07:59:17.197Z,60.7
2022-07-31T08:00:16.676Z,59.8
2022-07-31T08:01:17.313Z,60.1
2022-07-31T08:02:16.472Z,58.8
2022-07-31T08:03:47.771Z,57.6
2022-07-31T08:04:17.351Z,57.4
2022-07-31T08:05:16.976Z,57.1
2022-07-31T08:06:17.388Z,55.9
2022-07-31T08:07:16.815Z,55.3
2022-07-31T08:08:17.253Z,55.1
2022-07-31T08:09:16.705Z,54.8
2022-07-31T08:10:17.207Z,55.2
2022-07-31T08:11:17.923Z,55.5
2022-07-31T08:12:16.580Z,55.6
2022-07-31T08:13:17.034Z,57.3
2022-07-31T08:14:16.518Z,57.7
2022-07-31T08:15:16.970Z,55.5
2022-07-31T08:16:17.437Z,56.3
2022-07-31T08:17:16.854Z,54.7
2022-07-31T08:18:17.298Z,55.2
2022-07-31T08:19:16.742Z,55.4
2022-07-31T08:20:17.160Z,54.2
2022-07-31T08:21:16.593Z,52.9
2022-07-31T08:22:16.919Z,51.1
2022-07-31T08:23:18.458Z,50.9
2022-07-31T08:24:16.943Z,50.0
2022-07-31T08:25:17.418Z,49.8
2022-07-31T08:26:17.199Z,49.8
2022-07-31T08:27:21.670Z,50.5
2022-07-31T08:28:24.054Z,49.4
2022-07-31T08:29:16.686Z,49.5
2022-07-31T08:30:16.704Z,49.8
2022-07-31T08:31:17.124Z,50.8
2022-07-31T08:32:17.106Z,51.3
2022-07-31T08:33:16.537Z,50.3
2022-07-31T08:34:30.727Z,51.8
2022-07-31T08:35:16.759Z,51.8
2022-07-31T08:36:17.177Z,53.2
2022-07-31T08:37:51.449Z,53.7
2022-07-31T08:38:17.188Z,55.7
2022-07-31T08:39:21.393Z,51.2
2022-07-31T08:40:16.849Z,50.7
2022-07-31T08:41:17.305Z,50.4
2022-07-31T08:42:16.861Z,51.4
2022-07-31T08:44:01.177Z,53.9
2022-07-31T08:44:16.845Z,54.0
2022-07-31T08:45:17.288Z,54.4
2022-07-31T08:46:16.709Z,53.5
2022-07-31T08:47:17.120Z,52.9
2022-07-31T08:48:16.545Z,51.2
2022-07-31T08:49:17.153Z,50.2
2022-07-31T08:50:17.172Z,48.9
2022-07-31T08:51:16.622Z,49.1
2022-07-31T08:52:16.927Z,48.7
2022-07-31T08:53:17.383Z,48.3
2022-07-31T08:54:16.868Z,48.5
2022-07-31T08:55:55.845Z,48.7
2022-07-31T08:56:16.859Z,47.7
2022-07-31T08:57:17.314Z,47.1
2022-07-31T08:58:16.774Z,49.5
2022-07-31T08:59:17.353Z,48.3
2022-07-31T09:00:16.874Z,47.2
2022-07-31T09:01:17.496Z,47.4
2022-07-31T09:02:16.798Z,48.4
2022-07-31T09:03:17.210Z,48.7
2022-07-31T09:04:17.445Z,47.9
2022-07-31T09:05:17.744Z,47.0
2022-07-31T09:06:17.150Z,46.5
2022-07-31T09:07:16.620Z,45.7
2022-07-31T09:08:17.086Z,44.7
2022-07-31T09:09:16.578Z,45.1
2022-07-31T09:10:17.031Z,45.2
2022-07-31T09:11:16.505Z,43.5
2022-07-31T09:12:31.484Z,43.4
2022-07-31T09:13:17.183Z,43.4
2022-07-31T09:14:16.625Z,43.5
2022-07-31T09:15:17.060Z,44.0
2022-07-31T09:16:16.477Z,43.0
2022-07-31T09:17:16.926Z,43.7
2022-07-31T09:18:17.393Z,43.3
2022-07-31T09:19:53.354Z,42.6
2022-07-31T09:20:17.322Z,43.9
2022-07-31T09:21:16.735Z,43.9
2022-07-31T09:22:17.207Z,44.5
2022-07-31T09:23:16.674Z,44.1
2022-07-31T09:24:17.151Z,44.7
2022-07-31T09:25:16.641Z,44.6
2022-07-31T09:26:17.094Z,43.5
2022-07-31T09:27:16.541Z,43.2
2022-07-31T09:28:22.072Z,44.3
2022-07-31T09:29:17.190Z,45.2
2022-07-31T09:30:16.622Z,45.7
2022-07-31T09:31:17.080Z,45.4
2022-07-31T09:32:16.650Z,45.0
2022-07-31T09:33:17.069Z,45.5
2022-07-31T09:34:16.485Z,45.8
2022-07-31T09:35:16.915Z,45.5
2022-07-31T09:36:17.366Z,45.7
2022-07-31T09:37:16.796Z,45.7
2022-07-31T09:38:17.217Z,47.3
2022-07-31T09:39:27.794Z,44.8
2022-07-31T09:40:21.492Z,44.5
2022-07-31T09:41:56.078Z,45.4
2022-07-31T09:42:20.383Z,44.9
2022-07-31T09:43:16.646Z,44.5
2022-07-31T09:44:20.318Z,44.7
2022-07-31T09:45:16.450Z,43.9
2022-07-31T09:46:16.895Z,45.0
2022-07-31T09:47:17.312Z,44.6
2022-07-31T09:48:28.998Z,44.4
2022-07-31T09:49:17.333Z,43.8
2022-07-31T09:50:16.778Z,44.5
2022-07-31T09:51:17.192Z,43.7
2022-07-31T09:52:16.635Z,45.2
2022-07-31T09:53:17.088Z,44.2
2022-07-31T09:54:16.551Z,44.1
2022-07-31T09:55:17.356Z,44.1
2022-07-31T09:56:16.820Z,43.5
2022-07-31T09:57:17.297Z,43.7
2022-07-31T09:58:16.764Z,42.9
2022-07-31T09:59:17.243Z,43.6
2022-07-31T10:00:17.589Z,43.1
2022-07-31T10:01:17.895Z,41.5
2022-07-31T10:02:16.914Z,41.9
2022-07-31T10:03:17.327Z,42.3
2022-07-31T10:04:16.770Z,40.2
2022-07-31T10:05:17.202Z,40.6
2022-07-31T10:06:16.882Z,41.0
2022-07-31T10:07:32.644Z,40.8
2022-07-31T10:08:17.380Z,40.8
2022-07-31T10:09:16.821Z,40.4
2022-07-31T10:10:17.321Z,41.4
2022-07-31T10:11:17.042Z,41.7
2022-07-31T10:12:17.408Z,41.1
2022-07-31T10:13:16.880Z,41.4
2022-07-31T10:14:17.351Z,42.5
2022-07-31T10:15:16.859Z,41.9
2022-07-31T10:16:17.347Z,41.6
2022-07-31T10:17:16.779Z,42.3
2022-07-31T10:18:17.199Z,41.9
2022-07-31T10:19:16.619Z,41.3
2022-07-31T10:20:17.044Z,39.8
2022-07-31T10:21:16.459Z,39.5
2022-07-31T10:22:16.918Z,39.0
2022-07-31T10:23:17.387Z,39.3
2022-07-31T10:24:16.825Z,39.8
2022-07-31T10:25:17.348Z,39.4
2022-07-31T10:26:16.820Z,40.5
2022-07-31T10:27:18.332Z,39.9
2022-07-31T10:28:16.887Z,40.2
2022-07-31T10:29:17.340Z,40.7
2022-07-31T10:30:16.787Z,41.2
2022-07-31T10:31:17.208Z,41.3
2022-07-31T10:32:17.060Z,41.2
2022-07-31T10:33:43.360Z,41.3
2022-07-31T10:34:16.995Z,40.9
2022-07-31T10:35:16.427Z,39.6
2022-07-31T10:36:16.864Z,38.7
2022-07-31T10:37:17.288Z,38.4
2022-07-31T10:38:16.738Z,38.5
2022-07-31T10:39:17.204Z,39.4
2022-07-31T10:40:16.641Z,38.2
2022-07-31T10:41:17.086Z,38.8
2022-07-31T10:42:16.851Z,39.5
2022-07-31T10:43:17.307Z,38.5
2022-07-31T10:44:16.769Z,39.2
2022-07-31T10:45:17.212Z,39.0
2022-07-31T10:46:16.627Z,39.0
2022-07-31T10:47:17.051Z,38.7
2022-07-31T10:48:16.475Z,39.8
2022-07-31T10:49:17.057Z,40.1
2022-07-31T10:50:16.514Z,40.7
2022-07-31T10:51:16.977Z,42.2
2022-07-31T10:52:16.710Z,42.2
2022-07-31T10:53:17.195Z,43.2
2022-07-31T10:54:17.603Z,43.3
2022-07-31T10:55:17.035Z,43.9
2022-07-31T10:56:16.495Z,43.1
2022-07-31T10:57:16.943Z,43.3
2022-07-31T10:58:17.430Z,43.3
2022-07-31T10:59:16.865Z,42.3
2022-07-31T11:00:17.306Z,42.4
2022-07-31T11:01:18.001Z,42.5
2022-07-31T11:02:17.010Z,42.8
2022-07-31T11:03:16.430Z,42.2
2022-07-31T11:04:16.848Z,42.3
2022-07-31T11:05:17.308Z,42.8
2022-07-31T11:06:16.725Z,42.5
2022-07-31T11:07:17.174Z,42.7
2022-07-31T11:08:16.619Z,44.1
2022-07-31T11:09:17.063Z,42.0
2022-07-31T11:10:16.671Z,42.4
2022-07-31T11:11:17.122Z,43.2
2022-07-31T11:12:17.313Z,45.6
2022-07-31T11:13:16.762Z,45.7
2022-07-31T11:14:17.221Z,45.1
2022-07-31T11:15:16.676Z,45.0
2022-07-31T11:16:17.120Z,44.5
2022-07-31T11:18:16.281Z,44.7
2022-07-31T11:18:27.655Z,44.3
2022-07-31T11:19:17.302Z,43.7
2022-07-31T11:20:16.767Z,43.1
2022-07-31T11:21:38.418Z,43.3
2022-07-31T11:22:31.068Z,42.9
2022-07-31T11:23:16.832Z,43.0
2022-07-31T11:24:17.338Z,42.1
2022-07-31T11:25:16.812Z,42.2
2022-07-31T11:26:32.310Z,43.8
2022-07-31T11:27:17.318Z,42.2
2022-07-31T11:28:16.753Z,42.1
2022-07-31T11:29:58.352Z,41.6
2022-07-31T11:30:16.669Z,41.6
2022-07-31T11:31:17.094Z,41.1
2022-07-31T11:32:17.134Z,41.4
2022-07-31T11:33:17.131Z,40.2
2022-07-31T11:34:16.658Z,40.2
2022-07-31T11:35:17.094Z,40.5
2022-07-31T11:36:16.512Z,40.1
2022-07-31T11:37:16.980Z,40.4
2022-07-31T11:38:16.432Z,39.5
2022-07-31T11:39:17.475Z,39.6
2022-07-31T11:40:17.782Z,40.1
2022-07-31T11:41:22.864Z,41.3
2022-07-31T11:42:17.305Z,42.8
2022-07-31T11:43:26.586Z,42.5
2022-07-31T11:44:17.067Z,40.9
2022-07-31T11:45:17.017Z,41.5
2022-07-31T11:46:16.878Z,41.7
2022-07-31T11:48:10.702Z,41.5
2022-07-31T11:48:19.632Z,40.4
2022-07-31T11:49:17.246Z,40.4
2022-07-31T11:50:16.688Z,40.4
2022-07-31T11:51:17.128Z,40.8
2022-07-31T11:52:30.530Z,40.3
2022-07-31T11:53:17.290Z,40.6
2022-07-31T11:54:16.793Z,41.2
2022-07-31T11:55:17.280Z,41.0
2022-07-31T11:56:16.775Z,40.8
2022-07-31T11:57:17.266Z,40.9
2022-07-31T11:58:16.737Z,41.6
2022-07-31T11:59:44.989Z,41.3
2022-07-31T12:00:30.063Z,41.6
2022-07-31T12:01:16.725Z,42.3
2022-07-31T12:02:16.797Z,42.8
2022-07-31T12:03:17.224Z,43.5
2022-07-31T12:04:16.666Z,44.2
2022-07-31T12:05:38.560Z,44.7
2022-07-31T12:06:16.709Z,44.2
2022-07-31T12:07:17.166Z,44.6
2022-07-31T12:08:16.662Z,44.5
2022-07-31T12:10:01.718Z,45.0
2022-07-31T12:10:16.718Z,44.9
2022-07-31T12:11:17.432Z,44.7
2022-07-31T12:12:17.236Z,44.6
2022-07-31T12:13:16.722Z,44.6
2022-07-31T12:14:17.151Z,44.5
2022-07-31T12:15:16.583Z,44.6
2022-07-31T12:16:17.026Z,44.5
2022-07-31T12:17:16.450Z,44.6
2022-07-31T12:18:16.862Z,44.7
2022-07-31T12:19:17.321Z,44.7
2022-07-31T12:20:35.190Z,44.6
2022-07-31T12:21:17.012Z,44.9
2022-07-31T12:22:16.827Z,45.7
2022-07-31T12:23:38.809Z,45.8
2022-07-31T12:24:16.699Z,45.4
2022-07-31T12:25:17.162Z,45.4
2022-07-31T12:26:16.623Z,45.7
2022-07-31T12:27:17.108Z,46.1
2022-07-31T12:28:16.594Z,46.1
2022-07-31T12:29:17.020Z,46.2
2022-07-31T12:30:16.444Z,46.5
2022-07-31T12:31:16.882Z,46.4
2022-07-31T12:32:16.559Z,46.4
2022-07-31T12:33:16.997Z,46.6
2022-07-31T12:34:16.429Z,46.4
2022-07-31T12:35:16.869Z,46.5
2022-07-31T12:36:17.309Z,46.1
2022-07-31T12:37:16.759Z,46.3
2022-07-31T12:38:40.675Z,46.8
2022-07-31T12:39:16.729Z,46.7
2022-07-31T12:40:17.180Z,46.6
2022-07-31T12:41:16.661Z,46.1
2022-07-31T12:42:17.259Z,46.9
2022-07-31T12:43:16.750Z,46.2
2022-07-31T12:44:22.262Z,46.0
2022-07-31T12:45:20.576Z,46.2
2022-07-31T12:46:17.111Z,46.9
2022-07-31T12:47:16.542Z,46.8
2022-07-31T12:48:16.977Z,46.9
2022-07-31T12:49:17.507Z,47.1
2022-07-31T12:50:16.953Z,47.3
2022-07-31T12:51:17.425Z,47.0
2022-07-31T12:52:16.979Z,46.6
2022-07-31T12:53:16.420Z,46.6
2022-07-31T12:54:16.864Z,46.6
2022-07-31T12:55:17.957Z,47.1
2022-07-31T12:56:16.422Z,47.0
2022-07-31T12:57:16.870Z,46.9
2022-07-31T12:58:17.302Z,46.9
2022-07-31T12:59:16.725Z,47.6
2022-07-31T13:00:17.171Z,48.0
2022-07-31T13:01:16.694Z,46.5
2022-07-31T13:02:17.049Z,46.1
2022-07-31T13:03:16.527Z,46.4
2022-07-31T13:04:19.682Z,46.7
2022-07-31T13:05:17.274Z,47.0
2022-07-31T13:06:16.734Z,46.7
2022-07-31T13:07:18.613Z,47.3
2022-07-31T13:08:17.110Z,47.0
2022-07-31T13:09:16.622Z,46.5
2022-07-31T13:10:24.870Z,46.6
2022-07-31T13:11:16.617Z,47.0
2022-07-31T13:12:17.052Z,46.8
2022-07-31T13:13:16.519Z,46.5
2022-07-31T13:14:16.949Z,46.9
2022-07-31T13:15:20.768Z,47.0
2022-07-31T13:16:17.049Z,47.5
2022-07-31T13:17:16.505Z,47.6
2022-07-31T13:18:16.927Z,47.4
2022-07-31T13:19:17.374Z,46.9